createdAt,value
2018-11-28T06:18:31.717Z,3
2018-11-28T06:24:32.099Z,0
2018-11-28T06:25:02.119Z,7
2018-11-28T06:28:02.366Z,10
2018-11-28T06:30:02.480Z,13
2018-11-28T06:31:32.564Z,17
2018-11-28T06:32:32.606Z,20
2018-11-28T06:33:32.728Z,23
2018-11-28T06:34:32.762Z,27
2018-11-28T06:35:02.825Z,30
2018-11-28T06:36:02.847Z,33
2018-11-28T06:36:32.912Z,37
2018-11-28T06:37:02.940Z,40
2018-11-28T06:37:32.917Z,43
2018-11-28T06:38:02.970Z,47
2018-11-28T06:38:33.031Z,50
2018-11-28T06:39:03.064Z,53
2018-11-28T06:39:33.063Z,57
2018-11-28T06:40:03.124Z,63
2018-11-28T06:40:33.106Z,67
2018-11-28T06:41:03.157Z,70
2018-11-28T06:41:33.210Z,77
2018-11-28T06:42:03.217Z,83
2018-11-28T06:42:33.196Z,87
2018-11-28T06:43:03.264Z,93
2018-11-28T06:43:33.306Z,100
2018-11-28T06:44:03.333Z,107
2018-11-28T06:44:33.368Z,113
2018-11-28T06:45:03.446Z,120
2018-11-28T06:45:33.428Z,130
2018-11-28T06:46:03.457Z,137
2018-11-28T06:46:33.517Z,143
2018-11-28T06:47:03.549Z,153
2018-11-28T06:47:33.545Z,163
2018-11-28T06:48:03.535Z,170
2018-11-28T06:48:33.607Z,180
2018-11-28T06:49:03.588Z,190
2018-11-28T06:49:33.694Z,203
2018-11-28T06:50:05.212Z,213
2018-11-28T06:50:33.757Z,220
2018-11-28T06:51:03.759Z,233
2018-11-28T06:51:33.796Z,243
2018-11-28T06:52:03.833Z,257
2018-11-28T06:52:33.890Z,270
2018-11-28T06:53:03.915Z,280
2018-11-28T06:53:33.915Z,293
2018-11-28T06:54:03.974Z,307
2018-11-28T06:54:34.087Z,323
2018-11-28T06:55:04.047Z,337
2018-11-28T06:55:34.028Z,350
2018-11-28T06:56:04.070Z,367
2018-11-28T06:56:34.099Z,383
2018-11-28T06:57:04.138Z,397
2018-11-28T06:57:34.119Z,413
2018-11-28T06:58:04.187Z,427
2018-11-28T06:58:34.221Z,443
2018-11-28T06:59:04.199Z,460
2018-11-28T06:59:34.279Z,480
2018-11-28T07:00:04.361Z,497
2018-11-28T07:00:34.361Z,517
2018-11-28T07:01:04.347Z,533
2018-11-28T07:01:34.424Z,553
2018-11-28T07:02:04.441Z,573
2018-11-28T07:02:34.442Z,593
2018-11-28T07:03:04.503Z,613
2018-11-28T07:03:34.563Z,633
2018-11-28T07:04:04.553Z,650
2018-11-28T07:04:34.542Z,670
2018-11-28T07:05:04.653Z,693
2018-11-28T07:05:34.648Z,713
2018-11-28T07:06:04.626Z,737
2018-11-28T07:06:34.703Z,757
2018-11-28T07:07:04.746Z,780
2018-11-28T07:07:34.724Z,803
2018-11-28T07:08:04.789Z,827
2018-11-28T07:08:34.808Z,853
2018-11-28T07:09:04.853Z,873
2018-11-28T07:09:34.847Z,900
2018-11-28T07:10:04.931Z,923
2018-11-28T07:10:34.908Z,950
2018-11-28T07:11:04.965Z,973
2018-11-28T07:11:35.005Z,1000
2018-11-28T07:12:04.996Z,1023
2018-11-28T07:12:35.047Z,1050
2018-11-28T07:13:05.103Z,1073
2018-11-28T07:13:35.096Z,1100
2018-11-28T07:14:05.153Z,1127
2018-11-28T07:14:35.190Z,1153
2018-11-28T07:15:05.246Z,1180
2018-11-28T07:15:35.274Z,1207
2018-11-28T07:16:05.415Z,1237
2018-11-28T07:16:35.278Z,1263
2018-11-28T07:17:05.356Z,1290
2018-11-28T07:17:35.338Z,1320
2018-11-28T07:18:05.410Z,1350
2018-11-28T07:18:35.442Z,1377
2018-11-28T07:19:05.477Z,1407
2018-11-28T07:19:35.504Z,1437
2018-11-28T07:20:05.554Z,1467
2018-11-28T07:20:35.564Z,1493
2018-11-28T07:21:05.606Z,1523
2018-11-28T07:21:35.609Z,1550
2018-11-28T07:22:05.665Z,1583
2018-11-28T07:22:35.677Z,1613
2018-11-28T07:23:05.721Z,1643
2018-11-28T07:23:35.733Z,1673
2018-11-28T07:24:05.815Z,1703
2018-11-28T07:24:35.805Z,1730
2018-11-28T07:25:05.864Z,1760
2018-11-28T07:25:35.921Z,1793
2018-11-28T07:26:05.857Z,1823
2018-11-28T07:26:35.921Z,1853
2018-11-28T07:27:05.922Z,1887
2018-11-28T07:27:35.980Z,1913
2018-11-28T07:28:06.035Z,1943
2018-11-28T07:28:36.049Z,1973
2018-11-28T07:29:06.114Z,2003
2018-11-28T07:29:36.119Z,2033
2018-11-28T07:30:07.643Z,2067
2018-11-28T07:30:37.728Z,2097
2018-11-28T07:31:06.162Z,2127
2018-11-28T07:31:36.220Z,2157
2018-11-28T07:32:06.275Z,2187
2018-11-28T07:32:36.286Z,2217
2018-11-28T07:33:06.340Z,2250
2018-11-28T07:33:36.343Z,2280
2018-11-28T07:34:06.397Z,2317
2018-11-28T07:34:36.402Z,2347
2018-11-28T07:35:06.458Z,2373
2018-11-28T07:35:36.528Z,2407
2018-11-28T07:36:06.518Z,2437
2018-11-28T07:36:36.576Z,2467
2018-11-28T07:37:06.582Z,2503
2018-11-28T07:37:36.593Z,2533
2018-11-28T07:38:06.644Z,2560
2018-11-28T07:38:36.701Z,2593
2018-11-28T07:39:06.674Z,2627
2018-11-28T07:39:36.807Z,2660
2018-11-28T07:40:06.736Z,2700
2018-11-28T07:40:36.828Z,2737
2018-11-28T07:41:06.827Z,2770
2018-11-28T07:41:36.830Z,2800
2018-11-28T07:42:06.900Z,2833
2018-11-28T07:42:36.937Z,2860
2018-11-28T07:43:06.951Z,2893
2018-11-28T07:43:36.961Z,2923
2018-11-28T07:44:07.018Z,2943
2018-11-28T07:44:37.024Z,2977
2018-11-28T07:45:07.140Z,3003
2018-11-28T07:45:37.179Z,3033
2018-11-28T07:46:07.094Z,3063
2018-11-28T07:46:37.151Z,3097
2018-11-28T07:47:07.196Z,3127
2018-11-28T07:47:37.270Z,3163
2018-11-28T07:48:07.206Z,3197
2018-11-28T07:48:37.308Z,3217
2018-11-28T07:49:07.318Z,3253
2018-11-28T07:49:37.389Z,3283
2018-11-28T07:50:07.362Z,3310
2018-11-28T07:50:37.476Z,3340
2018-11-28T07:51:07.451Z,3370
2018-11-28T07:51:37.478Z,3413
2018-11-28T07:52:07.525Z,3447
2018-11-28T07:52:37.500Z,3480
2018-11-28T07:53:07.540Z,3510
2018-11-28T07:53:37.566Z,3580
2018-11-28T07:54:07.587Z,3627
2018-11-28T07:54:37.633Z,3773
2018-11-28T07:55:07.647Z,3903
2018-11-28T07:55:37.710Z,4000
2018-11-28T07:56:07.707Z,4110
2018-11-28T07:56:37.739Z,4237
2018-11-28T07:57:07.781Z,4347
2018-11-28T07:57:37.789Z,4480
2018-11-28T07:58:07.837Z,4560
2018-11-28T07:58:37.860Z,4733
2018-11-28T07:59:07.883Z,4823
2018-11-28T07:59:37.931Z,4857
2018-11-28T08:00:08.052Z,4313
2018-11-28T08:00:37.984Z,4707
2018-11-28T08:01:08.009Z,4617
2018-11-28T08:01:38.104Z,4480
2018-11-28T08:02:38.099Z,4690
2018-11-28T08:03:08.176Z,4483
2018-11-28T08:03:38.162Z,4413
2018-11-28T08:04:08.223Z,4267
2018-11-28T08:04:38.243Z,4280
2018-11-28T08:05:08.301Z,4327
2018-11-28T08:05:38.301Z,4637
2018-11-28T08:06:08.314Z,4787
2018-11-28T08:06:38.432Z,4597
2018-11-28T08:07:08.394Z,5023
2018-11-28T08:07:38.449Z,5040
2018-11-28T08:08:08.443Z,5477
2018-11-28T08:08:38.515Z,4943
2018-11-28T08:09:08.578Z,5197
2018-11-28T08:09:38.571Z,4910
2018-11-28T08:10:08.566Z,5580
2018-11-28T08:10:38.632Z,5650
2018-11-28T08:11:08.619Z,6047
2018-11-28T08:11:38.711Z,5910
2018-11-28T08:12:09.616Z,5757
2018-11-28T08:12:38.731Z,5967
2018-11-28T08:13:09.002Z,5927
2018-11-28T08:13:38.824Z,6263
2018-11-28T08:14:08.883Z,6287
2018-11-28T08:14:38.891Z,6440
2018-11-28T08:15:08.991Z,6420
2018-11-28T08:15:38.958Z,6487
2018-11-28T08:16:09.007Z,6280
2018-11-28T08:16:39.018Z,6400
2018-11-28T08:17:09.037Z,6553
2018-11-28T08:17:39.068Z,6573
2018-11-28T08:18:09.103Z,6593
2018-11-28T08:18:39.153Z,6287
2018-11-28T08:19:09.134Z,6140
2018-11-28T08:19:39.189Z,5857
2018-11-28T08:20:09.256Z,6133
2018-11-28T08:20:39.219Z,5777
2018-11-28T08:21:09.288Z,6623
2018-11-28T08:21:39.351Z,6770
2018-11-28T08:22:09.349Z,6630
2018-11-28T08:22:39.372Z,6700
2018-11-28T08:23:09.438Z,6740
2018-11-28T08:23:39.456Z,6960
2018-11-28T08:24:09.492Z,6680
2018-11-28T08:24:39.627Z,6390
2018-11-28T08:25:09.779Z,6567
2018-11-28T08:25:39.553Z,7250
2018-11-28T08:26:09.610Z,6647
2018-11-28T08:26:39.694Z,6917
2018-11-28T08:27:09.682Z,6700
2018-11-28T08:27:39.731Z,5903
2018-11-28T08:28:09.755Z,5803
2018-11-28T08:28:39.739Z,6163
2018-11-28T08:29:09.783Z,6520
2018-11-28T08:29:39.794Z,6653
2018-11-28T08:30:09.866Z,5967
2018-11-28T08:30:39.853Z,8123
2018-11-28T08:31:10.064Z,6127
2018-11-28T08:31:39.920Z,7283
2018-11-28T08:32:09.957Z,6007
2018-11-28T08:32:39.935Z,6793
2018-11-28T08:33:10.021Z,8243
2018-11-28T08:33:40.035Z,8107
2018-11-28T08:34:10.092Z,7953
2018-11-28T08:34:40.142Z,7963
2018-11-28T08:35:10.200Z,7883
2018-11-28T08:35:40.199Z,8033
2018-11-28T08:36:10.205Z,8223
2018-11-28T08:36:40.233Z,7943
2018-11-28T08:37:10.268Z,7903
2018-11-28T08:37:40.266Z,7943
2018-11-28T08:38:10.332Z,8127
2018-11-28T08:38:40.309Z,8747
2018-11-28T08:39:10.387Z,8817
2018-11-28T08:39:40.392Z,8320
2018-11-28T08:40:10.513Z,8147
2018-11-28T08:40:40.447Z,8193
2018-11-28T08:41:10.503Z,8500
2018-11-28T08:41:40.509Z,8670
2018-11-28T08:42:10.531Z,8843
2018-11-28T08:42:40.550Z,9030
2018-11-28T08:43:10.616Z,9137
2018-11-28T08:43:40.630Z,9133
2018-11-28T08:44:10.694Z,9033
2018-11-28T08:44:40.682Z,9223
2018-11-28T08:45:10.797Z,9403
2018-11-28T08:45:40.819Z,9340
2018-11-28T08:46:10.812Z,9147
2018-11-28T08:46:40.816Z,9103
2018-11-28T08:47:10.867Z,8903
2018-11-28T08:47:40.863Z,8920
2018-11-28T08:48:10.915Z,9240
2018-11-28T08:48:40.951Z,9290
2018-11-28T08:49:10.948Z,9457
2018-11-28T08:49:40.984Z,9607
2018-11-28T08:50:11.036Z,9930
2018-11-28T08:50:41.087Z,10067
2018-11-28T08:51:11.118Z,10097
2018-11-28T08:51:41.139Z,9963
2018-11-28T08:52:11.138Z,10017
2018-11-28T08:52:41.207Z,9583
2018-11-28T08:53:11.227Z,9210
2018-11-28T08:53:41.285Z,8710
2018-11-28T08:54:11.338Z,8687
2018-11-28T08:54:41.351Z,8757
2018-11-28T08:55:11.427Z,9050
2018-11-28T08:55:41.355Z,9370
2018-11-28T08:56:11.387Z,9567
2018-11-28T08:56:41.440Z,9017
2018-11-28T08:57:11.503Z,8547
2018-11-28T08:57:41.512Z,8630
2018-11-28T08:58:11.562Z,8927
2018-11-28T08:58:41.614Z,9680
2018-11-28T08:59:11.616Z,10117
2018-11-28T08:59:41.673Z,10300
2018-11-28T09:00:13.207Z,10170
2018-11-28T09:00:43.218Z,10213
2018-11-28T09:01:11.740Z,10383
2018-11-28T09:01:41.743Z,11077
2018-11-28T09:02:11.810Z,10873
2018-11-28T09:02:41.802Z,10133
2018-11-28T09:03:11.812Z,9763
2018-11-28T09:03:41.912Z,9353
2018-11-28T09:04:11.925Z,9653
2018-11-28T09:04:41.927Z,10463
2018-11-28T09:05:12.026Z,10453
2018-11-28T09:05:42.031Z,10177
2018-11-28T09:06:12.047Z,9863
2018-11-28T09:06:42.061Z,9813
2018-11-28T09:07:12.105Z,9927
2018-11-28T09:07:42.165Z,10387
2018-11-28T09:08:12.177Z,10320
2018-11-28T09:08:42.218Z,10230
2018-11-28T09:09:12.231Z,10597
2018-11-28T09:09:42.276Z,10803
2018-11-28T09:10:12.329Z,11080
2018-11-28T09:10:42.393Z,11343
2018-11-28T09:11:12.358Z,11177
2018-11-28T09:11:42.372Z,11230
2018-11-28T09:12:12.420Z,10460
2018-11-28T09:12:42.411Z,10313
2018-11-28T09:13:12.488Z,10203
2018-11-28T09:13:42.530Z,10390
2018-11-28T09:14:12.487Z,10677
2018-11-28T09:14:42.579Z,11600
2018-11-28T09:15:12.601Z,12787
2018-11-28T09:15:42.672Z,12550
2018-11-28T09:16:12.667Z,11947
2018-11-28T09:16:42.645Z,11373
2018-11-28T09:17:15.111Z,11360
2018-11-28T09:17:42.769Z,12353
2018-11-28T09:18:12.785Z,13193
2018-11-28T09:18:42.770Z,13200
2018-11-28T09:19:12.853Z,13150
2018-11-28T09:19:42.878Z,12120
2018-11-28T09:20:12.937Z,11290
2018-11-28T09:20:42.949Z,11757
2018-11-28T09:21:13.025Z,12157
2018-11-28T09:21:43.006Z,13190
2018-11-28T09:22:13.000Z,13597
2018-11-28T09:22:43.098Z,13887
2018-11-28T09:23:13.054Z,14237
2018-11-28T09:23:43.128Z,13770
2018-11-28T09:24:13.163Z,13060
2018-11-28T09:24:43.186Z,11767
2018-11-28T09:25:13.217Z,11493
2018-11-28T09:25:43.256Z,12037
2018-11-28T09:26:13.326Z,11533
2018-11-28T09:26:43.310Z,11863
2018-11-28T09:27:13.342Z,13140
2018-11-28T09:27:43.375Z,13187
2018-11-28T09:28:13.401Z,13073
2018-11-28T09:28:43.459Z,12913
2018-11-28T09:29:13.460Z,11863
2018-11-28T09:29:43.461Z,11210
2018-11-28T09:30:13.477Z,10937
2018-11-28T09:30:43.611Z,10337
2018-11-28T09:31:13.617Z,10097
2018-11-28T09:31:43.590Z,10490
2018-11-28T09:32:13.591Z,10900
2018-11-28T09:32:43.821Z,12730
2018-11-28T09:33:13.709Z,13347
2018-11-28T09:33:43.692Z,13733
2018-11-28T09:34:13.743Z,13753
2018-11-28T09:34:43.766Z,14053
2018-11-28T09:35:13.800Z,14267
2018-11-28T09:35:43.844Z,14653
2018-11-28T09:36:13.863Z,14817
2018-11-28T09:36:43.889Z,15260
2018-11-28T09:37:13.910Z,15517
2018-11-28T09:37:45.682Z,16013
2018-11-28T09:38:13.960Z,15867
2018-11-28T09:38:44.003Z,15823
2018-11-28T09:39:14.028Z,15063
2018-11-28T09:39:44.052Z,15470
2018-11-28T09:40:14.117Z,16003
2018-11-28T09:40:44.117Z,15997
2018-11-28T09:41:14.172Z,16373
2018-11-28T09:41:44.224Z,16873
2018-11-28T09:42:14.238Z,17153
2018-11-28T09:42:44.237Z,17320
2018-11-28T09:43:14.324Z,17007
2018-11-28T09:43:44.345Z,16383
2018-11-28T09:44:14.367Z,15193
2018-11-28T09:44:44.401Z,15203
2018-11-28T09:45:14.442Z,15483
2018-11-28T09:45:44.526Z,15807
2018-11-28T09:46:14.567Z,14733
2018-11-28T09:46:44.522Z,14213
2018-11-28T09:47:14.562Z,14913
2018-11-28T09:47:44.589Z,15610
2018-11-28T09:48:14.636Z,15727
2018-11-28T09:48:44.672Z,15150
2018-11-28T09:49:14.722Z,14907
2018-11-28T09:49:44.721Z,14893
2018-11-28T09:50:14.748Z,17007
2018-11-28T09:50:44.806Z,17860
2018-11-28T09:51:14.812Z,18240
2018-11-28T09:51:44.795Z,18967
2018-11-28T09:52:14.914Z,19077
2018-11-28T09:52:44.886Z,18067
2018-11-28T09:53:14.965Z,18157
2018-11-28T09:53:44.955Z,16593
2018-11-28T09:54:14.999Z,16080
2018-11-28T09:54:45.009Z,16657
2018-11-28T09:55:15.057Z,17263
2018-11-28T09:55:45.080Z,17193
2018-11-28T09:56:15.125Z,17887
2018-11-28T09:56:45.201Z,18470
2018-11-28T09:57:15.238Z,18790
2018-11-28T09:57:45.256Z,18567
2018-11-28T09:58:15.247Z,18653
2018-11-28T09:58:45.258Z,17377
2018-11-28T09:59:15.330Z,16110
2018-11-28T09:59:45.303Z,16530
2018-11-28T10:00:16.932Z,17740
2018-11-28T10:00:45.389Z,17387
2018-11-28T10:01:15.441Z,16393
2018-11-28T10:01:45.556Z,15700
2018-11-28T10:02:15.496Z,16200
2018-11-28T10:02:45.960Z,16023
2018-11-28T10:03:15.506Z,15860
2018-11-28T10:03:45.559Z,14923
2018-11-28T10:04:15.613Z,15927
2018-11-28T10:04:45.624Z,16773
2018-11-28T10:05:15.687Z,18067
2018-11-28T10:05:45.687Z,17213
2018-11-28T10:06:15.736Z,16950
2018-11-28T10:06:45.711Z,16027
2018-11-28T10:07:15.770Z,16190
2018-11-28T10:07:45.779Z,17180
2018-11-28T10:08:15.863Z,16030
2018-11-28T10:08:45.968Z,17553
2018-11-28T10:09:15.917Z,17733
2018-11-28T10:09:45.933Z,18083
2018-11-28T10:10:15.931Z,18760
2018-11-28T10:10:45.985Z,18917
2018-11-28T10:11:16.043Z,19513
2018-11-28T10:11:46.055Z,18233
2018-11-28T10:12:16.111Z,17597
2018-11-28T10:12:46.119Z,17737
2018-11-28T10:13:16.161Z,18003
2018-11-28T10:13:46.173Z,17123
2018-11-28T10:14:16.236Z,16977
2018-11-28T10:14:46.227Z,15827
2018-11-28T10:15:16.354Z,16200
2018-11-28T10:15:46.298Z,15707
2018-11-28T10:16:16.407Z,15853
2018-11-28T10:16:46.906Z,15360
2018-11-28T10:17:16.367Z,16983
2018-11-28T10:17:46.433Z,15857
2018-11-28T10:18:16.463Z,15250
2018-11-28T10:18:46.502Z,16420
2018-11-28T10:19:16.485Z,17923
2018-11-28T10:19:46.568Z,18120
2018-11-28T10:20:16.563Z,14647
2018-11-28T10:20:46.594Z,12603
2018-11-28T10:21:16.634Z,10673
2018-11-28T10:21:46.632Z,9953
2018-11-28T10:22:16.688Z,9810
2018-11-28T10:22:46.704Z,9843
2018-11-28T10:23:16.753Z,9957
2018-11-28T10:23:46.766Z,10167
2018-11-28T10:24:16.827Z,10047
2018-11-28T10:24:46.820Z,10177
2018-11-28T10:25:16.937Z,10093
2018-11-28T10:25:46.891Z,10240
2018-11-28T10:26:16.920Z,10227
2018-11-28T10:26:46.938Z,10077
2018-11-28T10:27:17.015Z,9993
2018-11-28T10:27:47.011Z,10170
2018-11-28T10:28:17.114Z,10160
2018-11-28T10:28:47.099Z,9813
2018-11-28T10:29:17.096Z,9843
2018-11-28T10:29:47.124Z,10073
2018-11-28T10:30:17.235Z,10197
2018-11-28T10:30:47.200Z,10113
2018-11-28T10:31:17.306Z,10107
2018-11-28T10:31:47.278Z,10257
2018-11-28T10:32:17.323Z,10363
2018-11-28T10:32:47.356Z,10643
2018-11-28T10:33:17.393Z,10867
2018-11-28T10:33:47.371Z,10957
2018-11-28T10:34:17.423Z,11020
2018-11-28T10:34:47.501Z,11023
2018-11-28T10:35:17.557Z,11097
2018-11-28T10:35:47.583Z,11100
2018-11-28T10:36:17.565Z,11237
2018-11-28T10:36:47.587Z,11483
2018-11-28T10:37:17.672Z,11743
2018-11-28T10:37:47.699Z,11767
2018-11-28T10:38:17.705Z,11663
2018-11-28T10:38:47.680Z,11590
2018-11-28T10:39:17.736Z,11557
2018-11-28T10:39:47.827Z,11603
2018-11-28T10:40:17.885Z,11607
2018-11-28T10:40:47.856Z,11600
2018-11-28T10:41:18.428Z,11590
2018-11-28T10:41:47.951Z,11650
2018-11-28T10:42:17.949Z,11790
2018-11-28T10:42:47.931Z,11917
2018-11-28T10:43:18.040Z,11883
2018-11-28T10:43:48.070Z,12013
2018-11-28T10:44:18.089Z,12403
2018-11-28T10:44:48.108Z,12713
2018-11-28T10:45:18.154Z,12933
2018-11-28T10:45:48.160Z,12853
2018-11-28T10:46:18.153Z,12827
2018-11-28T10:46:48.230Z,13060
2018-11-28T10:47:18.257Z,13057
2018-11-28T10:47:48.286Z,13453
2018-11-28T10:48:18.326Z,13580
2018-11-28T10:48:48.325Z,13733
2018-11-28T10:49:18.370Z,13870
2018-11-28T10:49:48.433Z,13890
2018-11-28T10:50:18.459Z,14023
2018-11-28T10:50:48.464Z,13577
2018-11-28T10:51:18.512Z,13540
2018-11-28T10:51:50.336Z,14047
2018-11-28T10:52:18.511Z,13763
2018-11-28T10:52:48.597Z,13403
2018-11-28T10:53:18.588Z,13390
2018-11-28T10:53:48.661Z,13493
2018-11-28T10:54:18.662Z,13343
2018-11-28T10:54:48.708Z,13280
2018-11-28T10:55:18.803Z,13373
2018-11-28T10:55:48.772Z,13503
2018-11-28T10:56:18.843Z,13573
2018-11-28T10:56:48.840Z,13413
2018-11-28T10:57:18.824Z,13347
2018-11-28T10:57:49.092Z,13250
2018-11-28T10:58:18.931Z,12940
2018-11-28T10:58:48.952Z,12853
2018-11-28T10:59:18.993Z,12840
2018-11-28T10:59:49.008Z,12623
2018-11-28T11:00:19.081Z,12517
2018-11-28T11:00:49.081Z,12480
2018-11-28T11:01:19.116Z,12193
2018-11-28T11:01:49.150Z,12047
2018-11-28T11:02:19.171Z,11847
2018-11-28T11:02:49.233Z,11677
2018-11-28T11:03:19.238Z,11543
2018-11-28T11:03:49.255Z,11480
2018-11-28T11:04:19.315Z,11393
2018-11-28T11:04:49.318Z,11220
2018-11-28T11:05:19.450Z,11123
2018-11-28T11:05:49.341Z,11043
2018-11-28T11:06:19.418Z,10940
2018-11-28T11:06:49.461Z,10913
2018-11-28T11:07:19.463Z,10687
2018-11-28T11:07:49.486Z,10470
2018-11-28T11:08:19.547Z,10273
2018-11-28T11:08:49.556Z,10310
2018-11-28T11:09:19.598Z,10067
2018-11-28T11:09:49.595Z,9927
2018-11-28T11:10:19.647Z,9990
2018-11-28T11:10:49.665Z,9930
2018-11-28T11:11:19.691Z,9813
2018-11-28T11:11:49.714Z,9753
2018-11-28T11:12:19.735Z,9833
2018-11-28T11:12:49.776Z,9957
2018-11-28T11:13:19.800Z,9897
2018-11-28T11:13:49.857Z,10023
2018-11-28T11:14:19.863Z,10060
2018-11-28T11:14:49.901Z,10150
2018-11-28T11:15:19.988Z,10303
2018-11-28T11:15:49.957Z,10467
2018-11-28T11:16:19.984Z,10663
2018-11-28T11:16:50.056Z,10690
2018-11-28T11:17:20.049Z,10717
2018-11-28T11:17:50.081Z,10757
2018-11-28T11:18:20.149Z,10720
2018-11-28T11:18:50.138Z,10583
2018-11-28T11:19:20.376Z,10437
2018-11-28T11:19:50.267Z,10533
2018-11-28T11:20:20.273Z,10673
2018-11-28T11:20:50.301Z,10560
2018-11-28T11:21:20.336Z,10680
2018-11-28T11:21:50.368Z,10667
2018-11-28T11:22:20.401Z,10750
2018-11-28T11:22:50.415Z,10767
2018-11-28T11:23:20.418Z,10827
2018-11-28T11:23:50.491Z,10920
2018-11-28T11:24:20.528Z,11113
2018-11-28T11:24:50.538Z,11117
2018-11-28T11:25:20.624Z,11063
2018-11-28T11:25:50.608Z,11137
2018-11-28T11:26:20.655Z,11307
2018-11-28T11:26:50.637Z,11537
2018-11-28T11:27:20.659Z,11700
2018-11-28T11:27:50.748Z,11873
2018-11-28T11:28:20.769Z,12040
2018-11-28T11:28:50.755Z,12440
2018-11-28T11:29:20.839Z,12883
2018-11-28T11:29:50.861Z,12853
2018-11-28T11:30:20.949Z,12837
2018-11-28T11:30:50.994Z,12930
2018-11-28T11:31:20.908Z,13110
2018-11-28T11:31:50.967Z,13193
2018-11-28T11:32:20.993Z,13100
2018-11-28T11:32:51.032Z,12980
2018-11-28T11:33:21.144Z,13207
2018-11-28T11:33:51.082Z,13417
2018-11-28T11:34:21.129Z,13687
2018-11-28T11:34:51.148Z,13530
2018-11-28T11:35:21.274Z,13353
2018-11-28T11:35:51.215Z,13477
2018-11-28T11:36:21.221Z,13307
2018-11-28T11:36:51.804Z,13010
2018-11-28T11:37:21.334Z,12557
2018-11-28T11:37:51.329Z,12407
2018-11-28T11:38:21.394Z,12437
2018-11-28T11:38:51.394Z,12457
2018-11-28T11:39:21.448Z,12633
2018-11-28T11:39:51.448Z,12977
2018-11-28T11:40:21.508Z,13380
2018-11-28T11:40:51.512Z,13263
2018-11-28T11:41:21.568Z,12843
2018-11-28T11:41:51.625Z,12523
2018-11-28T11:42:21.670Z,12547
2018-11-28T11:42:51.682Z,12623
2018-11-28T11:43:21.652Z,12570
2018-11-28T11:43:51.769Z,12653
2018-11-28T11:44:21.772Z,12777
2018-11-28T11:44:51.803Z,12840
2018-11-28T11:45:21.890Z,12770
2018-11-28T11:45:51.803Z,12773
2018-11-28T11:46:21.892Z,12690
2018-11-28T11:46:51.995Z,12627
2018-11-28T11:47:21.940Z,12583
2018-11-28T11:47:51.990Z,12557
2018-11-28T11:48:21.959Z,12563
2018-11-28T11:48:52.060Z,12583
2018-11-28T11:49:22.072Z,12647
2018-11-28T11:49:52.128Z,12767
2018-11-28T11:50:22.128Z,12903
2018-11-28T11:50:52.164Z,13027
2018-11-28T11:51:22.204Z,12973
2018-11-28T11:51:52.229Z,13163
2018-11-28T11:52:22.265Z,13380
2018-11-28T11:52:52.288Z,13737
2018-11-28T11:53:22.281Z,13873
2018-11-28T11:53:52.306Z,13947
2018-11-28T11:54:22.381Z,14473
2018-11-28T11:54:52.369Z,14737
2018-11-28T11:55:22.481Z,14827
2018-11-28T11:55:52.485Z,14900
2018-11-28T11:56:22.576Z,14733
2018-11-28T11:56:52.534Z,14620
2018-11-28T11:57:53.477Z,14380
2018-11-28T11:58:22.610Z,14587
2018-11-28T11:58:52.600Z,14807
2018-11-28T11:59:22.639Z,14880
2018-11-28T11:59:52.679Z,14993
2018-11-28T12:00:22.771Z,14760
2018-11-28T12:00:52.740Z,15107
2018-11-28T12:01:22.765Z,14860
2018-11-28T12:01:54.780Z,15253
2018-11-28T12:02:22.880Z,15250
2018-11-28T12:02:52.874Z,15443
2018-11-28T12:03:22.949Z,15720
2018-11-28T12:03:52.916Z,15970
2018-11-28T12:04:22.967Z,15980
2018-11-28T12:04:52.961Z,16293
2018-11-28T12:05:23.056Z,16243
2018-11-28T12:05:53.024Z,16590
2018-11-28T12:06:23.123Z,16553
2018-11-28T12:06:53.090Z,16397
2018-11-28T12:07:23.133Z,16313
2018-11-28T12:07:53.159Z,15917
2018-11-28T12:08:23.203Z,15653
2018-11-28T12:08:53.278Z,15623
2018-11-28T12:09:23.306Z,15503
2018-11-28T12:09:53.376Z,15510
2018-11-28T12:10:23.354Z,15577
2018-11-28T12:10:53.382Z,15330
2018-11-28T12:11:23.410Z,15030
2018-11-28T12:11:53.442Z,14957
2018-11-28T12:12:23.507Z,15043
2018-11-28T12:12:53.501Z,15047
2018-11-28T12:13:23.504Z,15057
2018-11-28T12:13:53.536Z,15023
2018-11-28T12:14:23.551Z,15027
2018-11-28T12:14:53.629Z,15123
2018-11-28T12:15:23.818Z,14663
2018-11-28T12:15:53.688Z,14697
2018-11-28T12:16:23.724Z,14813
2018-11-28T12:16:53.756Z,14690
2018-11-28T12:17:23.791Z,14397
2018-11-28T12:17:53.808Z,14160
2018-11-28T12:18:23.853Z,13867
2018-11-28T12:18:53.850Z,13717
2018-11-28T12:19:23.915Z,13437
2018-11-28T12:19:53.928Z,13167
2018-11-28T12:20:24.627Z,12903
2018-11-28T12:20:53.984Z,12090
2018-11-28T12:21:24.031Z,11677
2018-11-28T12:21:54.051Z,11610
2018-11-28T12:22:24.122Z,11587
2018-11-28T12:22:54.112Z,11297
2018-11-28T12:23:24.153Z,11040
2018-11-28T12:23:54.209Z,10713
2018-11-28T12:24:24.215Z,10757
2018-11-28T12:24:54.196Z,10357
2018-11-28T12:25:24.311Z,10230
2018-11-28T12:25:54.289Z,10437
2018-11-28T12:26:24.339Z,10177
2018-11-28T12:26:54.374Z,10410
2018-11-28T12:27:24.403Z,10620
2018-11-28T12:27:54.422Z,10683
2018-11-28T12:28:24.463Z,10650
2018-11-28T12:28:54.487Z,10740
2018-11-28T12:29:24.530Z,11090
2018-11-28T12:29:54.542Z,11287
2018-11-28T12:30:24.643Z,10983
2018-11-28T12:30:54.625Z,10657
2018-11-28T12:31:24.648Z,11023
2018-11-28T12:31:54.721Z,11100
2018-11-28T12:32:24.706Z,11227
2018-11-28T12:32:54.723Z,11553
2018-11-28T12:33:24.798Z,12310
2018-11-28T12:33:54.775Z,12790
2018-11-28T12:34:24.833Z,13607
2018-11-28T12:34:54.841Z,14020
2018-11-28T12:35:24.905Z,14153
2018-11-28T12:35:54.909Z,14580
2018-11-28T12:36:24.961Z,14540
2018-11-28T12:36:54.978Z,14687
2018-11-28T12:37:25.018Z,15280
2018-11-28T12:37:55.053Z,15937
2018-11-28T12:38:25.073Z,16090
2018-11-28T12:38:55.170Z,16060
2018-11-28T12:39:25.555Z,16177
2018-11-28T12:39:55.151Z,16050
2018-11-28T12:40:25.267Z,15997
2018-11-28T12:40:55.216Z,16313
2018-11-28T12:41:25.261Z,16410
2018-11-28T12:41:55.265Z,16250
2018-11-28T12:42:25.322Z,15877
2018-11-28T12:42:55.349Z,15673
2018-11-28T12:43:25.349Z,15293
2018-11-28T12:43:55.400Z,14963
2018-11-28T12:44:25.427Z,14793
2018-11-28T12:44:55.460Z,14957
2018-11-28T12:45:25.569Z,15407
2018-11-28T12:45:55.494Z,15597
2018-11-28T12:46:25.572Z,15557
2018-11-28T12:46:55.603Z,15370
2018-11-28T12:47:25.622Z,15633
2018-11-28T12:47:55.655Z,15587
2018-11-28T12:48:25.647Z,15397
2018-11-28T12:48:55.718Z,15370
2018-11-28T12:49:25.732Z,15433
2018-11-28T12:50:25.816Z,15553
2018-11-28T12:50:55.790Z,15507
2018-11-28T12:51:25.948Z,15137
2018-11-28T12:51:55.856Z,14833
2018-11-28T12:52:25.907Z,14687
2018-11-28T12:52:55.909Z,14420
2018-11-28T12:53:25.958Z,14180
2018-11-28T12:53:55.971Z,13770
2018-11-28T12:54:26.045Z,13560
2018-11-28T12:54:56.031Z,13540
2018-11-28T12:55:27.649Z,13697
2018-11-28T12:55:56.106Z,13750
2018-11-28T12:56:26.165Z,13820
2018-11-28T12:56:56.156Z,13897
2018-11-28T12:57:26.232Z,13940
2018-11-28T12:57:56.265Z,13913
2018-11-28T12:58:26.323Z,13897
2018-11-28T12:58:56.324Z,13807
2018-11-28T12:59:26.342Z,13543
2018-11-28T12:59:56.373Z,13220
2018-11-28T13:00:26.477Z,12910
2018-11-28T13:00:56.424Z,12500
2018-11-28T13:01:26.521Z,12053
2018-11-28T13:01:56.556Z,11807
2018-11-28T13:02:26.528Z,11580
2018-11-28T13:02:56.568Z,11353
2018-11-28T13:03:26.615Z,11200
2018-11-28T13:03:56.678Z,11147
2018-11-28T13:04:26.675Z,11233
2018-11-28T13:04:59.765Z,11310
2018-11-28T13:05:26.762Z,11517
2018-11-28T13:05:56.722Z,11653